Terminal Aerodrome Forecast
Issued by NWS Raleigh/Durham, NC

Home | Current Version | Previous Version | Text Only | Print | Product List | Glossary On
Versions: 1 2 3 4 5 6 7 8 9 10 11 12 13 14 15 16
000
FTUS42 KRAH 272217 AAE
TAFRDU
TAF AMD
KRDU 272217Z 2722/2818 VRB05KT P6SM VCTS SCT050CB BKN200
      TEMPO 2722/2723 06015G30KT 1 1/2SM +TSRA BR OVC025CB
     FM272300 00000KT P6SM SCT070
     FM280700 00000KT 4SM BR BKN006
     FM281400 06005KT P6SM BKN035=

USA.gov is the U.S. government's official web portal to all federal, state and local government web resources and services.